createdAt,value
2022-09-15T00:02:18.444Z,10.30
2022-09-15T00:04:54.293Z,11.00
2022-09-15T00:07:31.505Z,10.70
2022-09-15T00:10:10.390Z,10.60
2022-09-15T00:12:46.235Z,10.00
2022-09-15T00:15:22.969Z,9.70
2022-09-15T00:17:58.965Z,10.40
2022-09-15T00:20:34.773Z,9.70
2022-09-15T00:23:11.246Z,10.00
2022-09-15T00:25:53.483Z,9.60
2022-09-15T00:28:29.703Z,10.30
2022-09-15T00:31:10.912Z,10.20
2022-09-15T00:33:49.607Z,11.00
2022-09-15T00:36:27.412Z,11.10
2022-09-15T00:39:03.604Z,10.30
2022-09-15T00:41:41.661Z,11.30
2022-09-15T00:45:05.292Z,10.50
2022-09-15T00:47:43.128Z,10.30
2022-09-15T00:50:23.612Z,11.80
2022-09-15T00:53:04.922Z,10.80
2022-09-15T00:55:47.541Z,11.00
2022-09-15T00:58:30.429Z,11.50
2022-09-15T01:01:09.603Z,11.30
2022-09-15T01:03:46.578Z,10.30
2022-09-15T01:06:32.876Z,10.90
2022-09-15T01:09:16.706Z,10.60
2022-09-15T01:11:52.872Z,10.20
2022-09-15T01:14:28.896Z,10.40
2022-09-15T01:17:22.670Z,11.00
2022-09-15T01:21:09.769Z,10.00
2022-09-15T01:24:36.897Z,10.20
2022-09-15T01:27:42.665Z,10.30
2022-09-15T01:30:23.098Z,10.40
2022-09-15T01:33:32.099Z,10.60
2022-09-15T01:36:19.414Z,10.00
2022-09-15T01:39:05.300Z,9.90
2022-09-15T01:41:49.406Z,9.60
2022-09-15T01:44:33.219Z,9.80
2022-09-15T01:47:14.772Z,10.20
2022-09-15T01:49:57.731Z,9.90
2022-09-15T01:52:35.299Z,9.60
2022-09-15T01:55:22.507Z,10.10
2022-09-15T01:58:00.388Z,10.10
2022-09-15T02:00:42.946Z,9.40
2022-09-15T02:03:29.987Z,9.70
2022-09-15T02:06:15.908Z,9.00
2022-09-15T02:09:02.974Z,9.40
2022-09-15T02:11:48.065Z,8.60
2022-09-15T02:14:39.183Z,8.30
2022-09-15T02:17:20.686Z,8.20
2022-09-15T02:20:11.509Z,7.90
2022-09-15T02:22:54.715Z,8.30
2022-09-15T02:25:37.783Z,8.70
2022-09-15T02:28:18.420Z,9.00
2022-09-15T02:30:58.805Z,9.20
2022-09-15T02:33:41.251Z,10.30
2022-09-15T02:36:20.876Z,9.00
2022-09-15T02:39:06.092Z,9.60
2022-09-15T02:41:43.096Z,9.70
2022-09-15T02:44:19.216Z,9.50
2022-09-15T02:46:55.653Z,8.90
2022-09-15T02:49:31.762Z,9.60
2022-09-15T02:52:08.458Z,9.40
2022-09-15T02:54:44.260Z,9.10
2022-09-15T02:57:21.153Z,9.30
2022-09-15T03:00:16.125Z,9.30
2022-09-15T03:02:55.319Z,9.20
2022-09-15T03:05:32.825Z,9.20
2022-09-15T03:08:09.065Z,9.20
2022-09-15T03:10:45.362Z,9.20
2022-09-15T03:13:21.380Z,9.70
2022-09-15T03:15:57.155Z,9.80
2022-09-15T03:18:33.213Z,9.50
2022-09-15T03:21:13.204Z,9.30
2022-09-15T03:23:50.283Z,9.60
2022-09-15T03:26:26.181Z,9.70
2022-09-15T03:29:02.452Z,9.70
2022-09-15T03:31:38.293Z,10.70
2022-09-15T03:34:14.206Z,10.60
2022-09-15T03:36:49.939Z,10.80
2022-09-15T03:39:25.944Z,11.30
2022-09-15T03:42:01.724Z,11.90
2022-09-15T03:44:37.782Z,12.70
2022-09-15T03:47:13.768Z,12.40
2022-09-15T03:49:49.644Z,12.30
2022-09-15T03:52:26.288Z,12.80
2022-09-15T03:55:02.124Z,12.60
2022-09-15T03:57:38.076Z,13.20
2022-09-15T04:00:17.664Z,13.80
2022-09-15T04:02:53.595Z,13.80
2022-09-15T04:05:29.543Z,15.20
2022-09-15T04:08:05.871Z,15.00
2022-09-15T04:10:44.113Z,14.70
2022-09-15T04:13:20.060Z,14.50
2022-09-15T04:16:04.284Z,15.50
2022-09-15T04:18:40.767Z,15.40
2022-09-15T04:21:20.386Z,15.90
2022-09-15T04:23:56.660Z,15.50
2022-09-15T04:26:36.694Z,16.20
2022-09-15T04:29:18.899Z,30.20
2022-09-15T04:31:54.966Z,17.90
2022-09-15T04:34:30.865Z,15.60
2022-09-15T04:37:07.589Z,16.40
2022-09-15T04:39:43.573Z,15.90
2022-09-15T04:42:21.034Z,14.60
2022-09-15T04:44:56.803Z,14.70
2022-09-15T04:47:32.797Z,13.90
2022-09-15T04:50:10.125Z,13.40
2022-09-15T04:52:46.017Z,13.40
2022-09-15T04:55:21.980Z,12.00
2022-09-15T04:57:58.825Z,12.10
2022-09-15T05:00:43.269Z,11.40
2022-09-15T05:03:19.656Z,13.50
2022-09-15T05:05:55.628Z,10.50
2022-09-15T05:08:31.426Z,10.00
2022-09-15T05:11:10.306Z,10.40
2022-09-15T05:13:46.721Z,9.70
2022-09-15T05:16:26.668Z,9.70
2022-09-15T05:19:05.780Z,9.90
2022-09-15T05:21:41.852Z,9.60
2022-09-15T05:24:18.324Z,9.40
2022-09-15T05:26:54.070Z,9.90
2022-09-15T05:29:30.214Z,9.40
2022-09-15T05:32:06.821Z,8.70
2022-09-15T05:34:42.819Z,8.60
2022-09-15T05:37:19.879Z,9.20
2022-09-15T05:39:59.603Z,8.30
2022-09-15T05:42:36.930Z,8.30
2022-09-15T05:45:14.349Z,8.40
2022-09-15T05:47:50.715Z,8.10
2022-09-15T05:50:26.722Z,7.40
2022-09-15T05:53:02.706Z,7.50
2022-09-15T05:55:42.519Z,8.00
2022-09-15T05:58:18.511Z,8.40
2022-09-15T06:00:55.153Z,8.10
2022-09-15T06:03:31.359Z,7.60
2022-09-15T06:06:09.609Z,7.80
2022-09-15T06:08:51.853Z,8.10
2022-09-15T06:11:33.792Z,7.70
2022-09-15T06:14:09.816Z,7.60
2022-09-15T06:16:45.958Z,7.40
2022-09-15T06:19:22.118Z,7.10
2022-09-15T06:21:58.062Z,7.70
2022-09-15T06:24:33.970Z,7.90
2022-09-15T06:27:10.282Z,7.70
2022-09-15T06:29:46.100Z,7.20
2022-09-15T06:32:22.110Z,7.80
2022-09-15T06:34:58.067Z,7.70
2022-09-15T06:37:34.130Z,7.70
2022-09-15T06:40:13.326Z,7.80
2022-09-15T06:42:49.416Z,7.60
2022-09-15T06:45:25.229Z,8.30
2022-09-15T06:48:22.868Z,7.30
2022-09-15T06:51:00.695Z,7.00
2022-09-15T06:53:39.159Z,6.80
2022-09-15T06:56:18.216Z,6.50
2022-09-15T06:58:54.625Z,6.80
2022-09-15T07:01:39.998Z,6.40
2022-09-15T07:04:16.148Z,6.90
2022-09-15T07:06:52.347Z,6.90
2022-09-15T07:09:28.381Z,7.50
2022-09-15T07:12:04.768Z,7.50
2022-09-15T07:14:41.086Z,7.90
2022-09-15T07:17:17.241Z,7.90
2022-09-15T07:19:53.292Z,7.10
2022-09-15T07:22:30.364Z,3.50
2022-09-15T07:25:07.449Z,2.50
2022-09-15T07:27:43.864Z,2.30
2022-09-15T07:30:20.557Z,1.90
2022-09-15T07:32:56.434Z,1.80
2022-09-15T07:35:32.692Z,1.60
2022-09-15T07:38:08.478Z,1.50
2022-09-15T07:40:46.209Z,1.60
2022-09-15T07:43:22.165Z,1.30
2022-09-15T07:46:02.194Z,1.60
2022-09-15T07:48:38.368Z,1.50
2022-09-15T07:51:15.322Z,1.30
2022-09-15T07:53:52.802Z,1.60
2022-09-15T07:56:28.845Z,1.50
2022-09-15T07:59:04.657Z,1.80
2022-09-15T08:01:41.590Z,1.70
2022-09-15T08:04:18.021Z,1.70
2022-09-15T08:06:53.841Z,1.80
2022-09-15T08:09:30.132Z,1.80
2022-09-15T08:12:08.120Z,1.80
2022-09-15T08:14:44.081Z,2.00
2022-09-15T08:17:20.142Z,2.00
2022-09-15T08:19:55.925Z,2.10
2022-09-15T08:22:31.849Z,2.00
2022-09-15T08:25:09.362Z,2.20
2022-09-15T08:27:45.910Z,2.00
2022-09-15T08:30:22.702Z,2.00
2022-09-15T08:32:58.744Z,2.30
2022-09-15T08:35:37.054Z,2.30
2022-09-15T08:38:13.553Z,2.20
2022-09-15T08:40:50.506Z,2.80
2022-09-15T08:43:38.228Z,2.30
2022-09-15T08:46:22.529Z,2.40
2022-09-15T08:49:09.719Z,2.30
2022-09-15T08:51:52.016Z,2.40
2022-09-15T08:54:31.543Z,2.40
2022-09-15T08:57:12.297Z,2.70
2022-09-15T08:59:48.252Z,2.40
2022-09-15T09:03:21.168Z,2.40
2022-09-15T09:06:09.444Z,2.60
2022-09-15T09:09:15.276Z,2.10
2022-09-15T09:12:32.425Z,2.00
2022-09-15T09:15:29.562Z,1.90
2022-09-15T09:18:50.311Z,1.80
2022-09-15T09:21:32.507Z,1.60
2022-09-15T09:26:56.503Z,1.80
2022-09-15T09:29:40.593Z,1.60
2022-09-15T09:32:24.797Z,1.70
2022-09-15T09:35:14.646Z,1.60
2022-09-15T09:37:52.391Z,1.70
2022-09-15T09:40:30.971Z,1.90
2022-09-15T09:43:07.634Z,1.90
2022-09-15T09:45:44.140Z,1.90
2022-09-15T09:48:26.332Z,1.90
2022-09-15T09:51:02.882Z,1.80
2022-09-15T09:53:39.134Z,2.00
2022-09-15T09:56:27.957Z,1.80
2022-09-15T09:59:05.145Z,1.90
2022-09-15T10:01:41.521Z,1.90
2022-09-15T10:04:23.885Z,1.70
2022-09-15T10:07:00.638Z,1.90
2022-09-15T10:09:37.905Z,1.90
2022-09-15T10:12:27.705Z,1.90
2022-09-15T10:15:09.744Z,1.80
2022-09-15T10:17:50.343Z,1.90
2022-09-15T10:20:40.064Z,2.10
2022-09-15T10:23:32.164Z,2.50
2022-09-15T10:26:34.836Z,2.10
2022-09-15T10:29:27.239Z,2.10
2022-09-15T10:32:26.082Z,1.90
2022-09-15T10:35:23.941Z,1.90
2022-09-15T10:38:15.886Z,2.10
2022-09-15T10:41:03.257Z,1.90
2022-09-15T10:43:58.204Z,2.00
2022-09-15T10:46:47.245Z,2.10
2022-09-15T10:49:49.501Z,2.00
2022-09-15T10:52:45.185Z,2.10
2022-09-15T10:55:52.940Z,2.00
2022-09-15T10:59:01.031Z,2.30
2022-09-15T11:02:21.561Z,2.00
2022-09-15T11:05:23.692Z,2.00
2022-09-15T11:08:27.190Z,2.20
2022-09-15T11:11:14.966Z,2.20
2022-09-15T11:14:23.321Z,2.10
2022-09-15T11:17:24.545Z,2.20
2022-09-15T11:20:41.297Z,2.40
2022-09-15T11:23:27.098Z,2.90
2022-09-15T11:26:11.182Z,2.30
2022-09-15T11:28:53.823Z,2.50
2022-09-15T11:31:36.233Z,3.20
2022-09-15T11:34:24.201Z,2.50
2022-09-15T11:37:09.258Z,2.80
2022-09-15T11:39:54.669Z,3.50
2022-09-15T11:42:41.291Z,2.90
2022-09-15T11:45:27.913Z,2.80
2022-09-15T11:48:16.055Z,2.90
2022-09-15T11:50:58.220Z,2.90
2022-09-15T11:53:48.630Z,3.10
2022-09-15T11:56:34.885Z,3.50
2022-09-15T11:59:27.176Z,3.30
2022-09-15T12:02:20.597Z,2.90
2022-09-15T12:05:15.024Z,3.30
2022-09-15T12:07:59.493Z,2.90
2022-09-15T12:10:42.349Z,3.20
2022-09-15T12:13:22.722Z,3.30
2022-09-15T12:16:02.188Z,2.80
2022-09-15T12:18:46.908Z,2.70
2022-09-15T12:21:35.336Z,3.00
2022-09-15T12:24:25.038Z,3.20
2022-09-15T12:27:03.763Z,3.10
2022-09-15T12:29:50.861Z,3.00
2022-09-15T12:32:30.713Z,2.60
2022-09-15T12:35:34.505Z,2.60
2022-09-15T12:38:17.172Z,2.40
2022-09-15T12:41:02.569Z,2.60
2022-09-15T12:43:38.530Z,2.60
2022-09-15T12:46:22.102Z,2.50
2022-09-15T12:49:03.758Z,2.50
2022-09-15T12:51:39.782Z,2.60
2022-09-15T12:54:28.324Z,2.40
2022-09-15T12:57:06.168Z,2.80
2022-09-15T12:59:42.041Z,2.40
2022-09-15T13:02:51.366Z,3.00
2022-09-15T13:06:24.013Z,2.80
2022-09-15T13:09:29.691Z,3.10
2022-09-15T13:12:08.971Z,3.10
2022-09-15T13:14:50.184Z,3.00
2022-09-15T13:17:29.545Z,3.40
2022-09-15T13:20:23.146Z,3.40
2022-09-15T13:23:00.747Z,3.60
2022-09-15T13:25:38.717Z,3.40
2022-09-15T13:28:19.004Z,3.70
2022-09-15T13:31:16.909Z,3.40
2022-09-15T13:38:30.902Z,3.70
2022-09-15T13:41:52.441Z,3.90
2022-09-15T13:45:26.410Z,3.60
2022-09-15T13:48:42.563Z,3.30
2022-09-15T13:51:28.774Z,3.30
2022-09-15T13:54:15.923Z,3.50
2022-09-15T13:56:53.319Z,3.50
2022-09-15T13:59:34.857Z,3.80
2022-09-15T14:02:13.170Z,3.60
2022-09-15T14:04:54.029Z,3.90
2022-09-15T14:07:32.674Z,3.80
2022-09-15T14:10:19.237Z,3.80
2022-09-15T14:12:59.972Z,3.10
2022-09-15T14:15:36.438Z,3.40
2022-09-15T14:18:24.266Z,3.30
2022-09-15T14:21:19.608Z,3.40
2022-09-15T14:23:58.893Z,3.10
2022-09-15T14:26:38.158Z,3.10
2022-09-15T14:29:24.542Z,5.90
2022-09-15T14:32:07.445Z,3.40
2022-09-15T14:34:44.715Z,3.20
2022-09-15T14:37:27.629Z,3.50
2022-09-15T14:40:21.108Z,3.30
2022-09-15T14:42:58.038Z,3.30
2022-09-15T14:45:57.546Z,3.10
2022-09-15T14:51:22.763Z,3.30
2022-09-15T14:54:03.193Z,3.60
2022-09-15T14:56:44.147Z,3.80
2022-09-15T14:59:28.734Z,3.60
2022-09-15T15:02:27.235Z,3.70
2022-09-15T15:05:10.984Z,3.40
2022-09-15T15:07:47.520Z,3.30
2022-09-15T15:10:35.639Z,3.40
2022-09-15T15:13:18.262Z,3.00
2022-09-15T15:15:54.549Z,3.30
2022-09-15T15:18:43.732Z,3.80
2022-09-15T15:21:44.521Z,3.10
2022-09-15T15:24:27.051Z,3.30
2022-09-15T15:27:43.807Z,3.50
2022-09-15T15:30:50.926Z,3.90
2022-09-15T15:33:31.123Z,3.60
2022-09-15T15:36:11.918Z,3.70
2022-09-15T15:38:56.911Z,3.90
2022-09-15T15:41:37.913Z,3.80
2022-09-15T15:44:32.144Z,3.60
2022-09-15T15:47:30.403Z,4.00
2022-09-15T15:50:16.429Z,3.80
2022-09-15T15:52:53.798Z,3.80
2022-09-15T15:55:40.655Z,4.30
2022-09-15T15:58:18.862Z,4.20
2022-09-15T16:00:57.612Z,4.10
2022-09-15T16:03:33.793Z,4.10
2022-09-15T16:06:12.646Z,4.10
2022-09-15T16:08:49.402Z,4.10
2022-09-15T16:11:25.258Z,4.20
2022-09-15T16:14:01.413Z,4.90
2022-09-15T16:16:41.005Z,5.10
2022-09-15T16:19:17.349Z,4.80
2022-09-15T16:21:55.638Z,5.10
2022-09-15T16:24:32.617Z,5.50
2022-09-15T16:27:14.952Z,5.20
2022-09-15T16:29:51.256Z,5.40
2022-09-15T16:32:28.783Z,5.70
2022-09-15T16:35:11.273Z,5.40
2022-09-15T16:37:47.110Z,6.40
2022-09-15T16:40:24.218Z,6.40
2022-09-15T16:43:02.486Z,6.00
2022-09-15T16:45:43.130Z,12.00
2022-09-15T16:48:20.069Z,6.70
2022-09-15T16:51:20.523Z,6.50
2022-09-15T16:53:52.417Z,6.60
2022-09-15T16:56:29.129Z,7.20
2022-09-15T16:59:05.482Z,26.40
2022-09-15T17:01:41.741Z,8.80
2022-09-15T17:04:20.197Z,7.20
2022-09-15T17:06:56.283Z,7.20
2022-09-15T17:09:32.180Z,7.50
2022-09-15T17:14:49.898Z,7.20
2022-09-15T17:17:31.615Z,7.50
2022-09-15T17:22:43.059Z,7.70
2022-09-15T17:25:35.015Z,8.40
2022-09-15T17:28:11.032Z,7.40
2022-09-15T17:30:46.916Z,8.00
2022-09-15T17:33:24.648Z,8.80
2022-09-15T17:36:02.755Z,9.40
2022-09-15T17:38:41.195Z,9.60
2022-09-15T17:41:22.423Z,9.00
2022-09-15T17:43:59.592Z,9.30
2022-09-15T17:46:35.668Z,9.60
2022-09-15T17:49:12.029Z,10.50
2022-09-15T17:51:48.038Z,9.40
2022-09-15T17:54:24.229Z,10.50
2022-09-15T17:57:00.130Z,11.00
2022-09-15T17:59:36.060Z,10.70
2022-09-15T18:02:21.874Z,10.60
2022-09-15T18:04:58.437Z,11.00
2022-09-15T18:07:35.027Z,11.00
2022-09-15T18:10:12.914Z,10.20
2022-09-15T18:12:52.236Z,10.80
2022-09-15T18:15:35.335Z,10.10
2022-09-15T18:18:18.791Z,10.80
2022-09-15T18:20:58.002Z,10.20
2022-09-15T18:23:33.852Z,10.50
2022-09-15T18:26:09.959Z,10.00
2022-09-15T18:28:45.853Z,9.60
2022-09-15T18:31:22.132Z,9.10
2022-09-15T18:33:58.393Z,8.60
2022-09-15T18:36:34.580Z,7.20
2022-09-15T18:39:12.012Z,7.80
2022-09-15T18:44:30.497Z,7.30
2022-09-15T18:47:06.517Z,6.40
2022-09-15T18:49:42.517Z,63.30
2022-09-15T18:52:18.677Z,11.90
2022-09-15T18:54:54.847Z,6.50
2022-09-15T18:57:36.970Z,5.50
2022-09-15T19:00:19.882Z,5.90
2022-09-15T19:03:01.115Z,11.80
2022-09-15T19:05:38.651Z,8.10
2022-09-15T19:08:15.728Z,6.70
2022-09-15T19:11:02.069Z,7.00
2022-09-15T19:13:37.987Z,6.80
2022-09-15T19:16:14.504Z,6.50
2022-09-15T19:18:53.841Z,6.20
2022-09-15T19:21:30.057Z,5.90
2022-09-15T19:24:06.468Z,6.00
2022-09-15T19:26:42.584Z,6.60
2022-09-15T19:29:19.005Z,6.30
2022-09-15T19:31:54.906Z,6.20
2022-09-15T19:34:30.731Z,6.60
2022-09-15T19:37:11.376Z,7.00
2022-09-15T19:39:50.453Z,7.50
2022-09-15T19:42:26.600Z,7.50
2022-09-15T19:45:02.865Z,7.70
2022-09-15T19:47:39.363Z,7.70
2022-09-15T19:50:18.132Z,10.10
2022-09-15T19:52:58.832Z,9.00
2022-09-15T19:55:35.790Z,9.20
2022-09-15T19:58:11.769Z,10.20
2022-09-15T20:00:52.505Z,11.60
2022-09-15T20:08:10.971Z,10.50
2022-09-15T20:10:49.064Z,12.20
2022-09-15T20:13:26.490Z,11.50
2022-09-15T20:16:07.554Z,12.20
2022-09-15T20:18:47.412Z,12.60
2022-09-15T20:21:48.650Z,20.30
2022-09-15T20:24:27.310Z,14.30
2022-09-15T20:27:05.581Z,13.20
2022-09-15T20:29:44.368Z,14.00
2022-09-15T20:32:27.481Z,13.80
2022-09-15T20:35:05.812Z,15.60
2022-09-15T20:37:43.251Z,14.80
2022-09-15T20:40:21.330Z,14.50
2022-09-15T20:42:58.757Z,15.20
2022-09-15T20:45:39.966Z,15.50
2022-09-15T20:48:20.082Z,15.10
2022-09-15T20:51:07.204Z,15.50
2022-09-15T20:53:47.829Z,15.20
2022-09-15T20:56:26.892Z,15.10
2022-09-15T20:59:06.396Z,15.50
2022-09-15T21:01:45.333Z,15.20
2022-09-15T21:04:23.024Z,16.10
2022-09-15T21:06:59.682Z,17.00
2022-09-15T21:09:36.649Z,18.10
2022-09-15T21:12:13.918Z,18.40
2022-09-15T21:14:50.577Z,18.70
2022-09-15T21:17:29.183Z,18.00
2022-09-15T21:20:06.522Z,17.70
2022-09-15T21:22:43.328Z,18.00
2022-09-15T21:25:20.001Z,17.30
2022-09-15T21:27:56.352Z,17.90
2022-09-15T21:30:32.902Z,17.80
2022-09-15T21:33:09.462Z,16.40
2022-09-15T21:35:47.535Z,22.10
2022-09-15T21:38:24.205Z,18.40
2022-09-15T21:41:00.740Z,16.40
2022-09-15T21:43:40.288Z,16.70
2022-09-15T21:46:20.112Z,16.40
2022-09-15T21:48:59.092Z,17.30
2022-09-15T21:51:36.394Z,17.30
2022-09-15T21:54:13.837Z,17.00
2022-09-15T21:56:50.620Z,16.80
2022-09-15T21:59:27.503Z,17.50
2022-09-15T22:02:04.030Z,25.10
2022-09-15T22:04:41.093Z,23.50
2022-09-15T22:07:19.551Z,17.70
2022-09-15T22:09:56.347Z,17.70
2022-09-15T22:12:33.042Z,17.90
2022-09-15T22:15:12.411Z,18.20
2022-09-15T22:17:49.050Z,17.20
2022-09-15T22:20:25.967Z,17.20
2022-09-15T22:23:04.773Z,18.20
2022-09-15T22:25:41.239Z,17.10
2022-09-15T22:28:17.615Z,17.20
2022-09-15T22:30:57.378Z,16.80
2022-09-15T22:33:34.943Z,16.60
2022-09-15T22:36:13.998Z,16.70
2022-09-15T22:38:50.772Z,15.90
2022-09-15T22:41:27.488Z,15.90
2022-09-15T22:44:04.770Z,15.50
2022-09-15T22:46:41.377Z,15.30
2022-09-15T22:49:18.002Z,15.30
2022-09-15T22:51:54.632Z,14.80
2022-09-15T22:54:31.810Z,15.70
2022-09-15T22:57:08.620Z,14.50
2022-09-15T22:59:45.003Z,14.70
2022-09-15T23:02:20.881Z,13.90
2022-09-15T23:04:56.647Z,14.30
2022-09-15T23:07:32.773Z,13.90
2022-09-15T23:10:10.003Z,13.40
2022-09-15T23:12:45.705Z,13.30
2022-09-15T23:15:21.496Z,15.20
2022-09-15T23:17:56.901Z,13.40
2022-09-15T23:20:33.781Z,12.50
2022-09-15T23:23:10.723Z,12.20
2022-09-15T23:25:47.896Z,12.20
2022-09-15T23:28:24.634Z,11.60
2022-09-15T23:31:03.049Z,11.50
2022-09-15T23:33:39.382Z,11.50
2022-09-15T23:36:19.682Z,11.50
2022-09-15T23:38:56.009Z,10.90
2022-09-15T23:41:32.077Z,11.70
2022-09-15T23:44:09.060Z,12.10
2022-09-15T23:46:45.222Z,11.40
2022-09-15T23:49:21.604Z,12.10
2022-09-15T23:51:57.845Z,13.50
2022-09-15T23:54:34.112Z,11.70
2022-09-15T23:57:11.912Z,11.80
2022-09-15T23:59:48.023Z,13.20
